Medea, Algeria
Current Conditions -  °F | °C
As of 7:30 PM on Thursday 30 Oct 2014 (Local Time) from DAAG Reporting Station
Clear Clear  
Wind Chill: 68°   Ceiling: Unl
Heat Index: 68°   Visibility: 6mi
Dew Point: 45°   Wind: 7mph
Humidity: 43%   Direction: 60°ENE
Pressure: 30.18"   Gusts: NA
Location:  36.26°N, 2.75°E
Report Text: DAAG 301830Z 06006KT CAVOK 20/07 Q1022
Loading
Personal Weather Stations






























Interactive Weather Map
Tropical Storm Tracking
New forecast layout! Learn more

10-Day Weather Forecast

Advertisements
Track Severe Weather on mobile